createdAt,value
2018-03-28T00:02:07.873Z,90.80
2018-03-28T00:04:35.346Z,90.60
2018-03-28T00:07:02.865Z,90.70
2018-03-28T00:09:31.076Z,90.60
2018-03-28T00:11:58.595Z,90.60
2018-03-28T00:14:26.085Z,90.70
2018-03-28T00:16:53.557Z,90.50
2018-03-28T00:19:21.053Z,90.80
2018-03-28T00:21:49.352Z,90.90
2018-03-28T00:24:17.558Z,91.10
2018-03-28T00:26:45.020Z,90.90
2018-03-28T00:29:12.622Z,90.80
2018-03-28T00:31:40.167Z,90.70
2018-03-28T00:34:08.433Z,90.80
2018-03-28T00:36:36.717Z,90.80
2018-03-28T00:39:05.898Z,90.80
2018-03-28T00:41:33.409Z,90.70
2018-03-28T00:44:00.917Z,90.70
2018-03-28T00:46:28.400Z,90.70
2018-03-28T00:48:56.778Z,90.80
2018-03-28T00:51:36.188Z,90.80
2018-03-28T00:54:04.500Z,90.90
2018-03-28T00:56:31.977Z,90.80
2018-03-28T00:58:59.465Z,90.90
2018-03-28T01:01:27.048Z,90.70
2018-03-28T01:03:54.541Z,90.50
2018-03-28T01:06:22.011Z,90.80
2018-03-28T01:08:49.506Z,90.60
2018-03-28T01:11:16.974Z,90.70
2018-03-28T01:13:44.473Z,90.70
2018-03-28T01:16:11.945Z,90.70
2018-03-28T01:18:39.472Z,90.70
2018-03-28T01:21:07.017Z,90.70
2018-03-28T01:23:35.276Z,90.60
2018-03-28T01:26:03.517Z,91.00
2018-03-28T01:28:31.014Z,90.70
2018-03-28T01:30:58.489Z,90.60
2018-03-28T01:33:26.757Z,90.70
2018-03-28T01:35:55.023Z,90.70
2018-03-28T01:38:22.507Z,90.70
2018-03-28T01:40:49.965Z,91.20
2018-03-28T01:43:17.474Z,90.80
2018-03-28T01:45:44.938Z,90.90
2018-03-28T01:48:12.509Z,90.80
2018-03-28T01:50:40.003Z,91.00
2018-03-28T01:53:07.534Z,90.60
2018-03-28T01:55:35.804Z,90.90
2018-03-28T01:58:04.229Z,90.90
2018-03-28T02:00:31.725Z,91.10
2018-03-28T02:02:59.302Z,90.80
2018-03-28T02:05:27.549Z,90.90
2018-03-28T02:07:55.030Z,90.80
2018-03-28T02:10:22.533Z,90.80
2018-03-28T02:12:49.997Z,91.00
2018-03-28T02:15:17.514Z,91.00
2018-03-28T02:17:45.745Z,91.20
2018-03-28T02:20:13.242Z,91.20
2018-03-28T02:22:41.468Z,91.20
2018-03-28T02:25:09.009Z,91.20
2018-03-28T02:27:36.481Z,91.20
2018-03-28T02:30:03.999Z,91.10
2018-03-28T02:32:31.473Z,90.90
2018-03-28T02:34:58.949Z,90.70
2018-03-28T02:37:26.416Z,90.80
2018-03-28T02:39:53.937Z,90.80
2018-03-28T02:42:22.169Z,90.90
2018-03-28T02:44:49.648Z,90.80
2018-03-28T02:47:17.116Z,91.00
2018-03-28T02:49:45.382Z,91.20
2018-03-28T02:52:12.845Z,91.20
2018-03-28T02:54:41.093Z,91.50
2018-03-28T02:57:08.586Z,91.50
2018-03-28T02:59:36.849Z,91.70
2018-03-28T03:02:04.308Z,91.60
2018-03-28T03:04:32.566Z,91.50
2018-03-28T03:07:00.065Z,91.50
2018-03-28T03:09:27.565Z,91.40
2018-03-28T03:11:55.049Z,91.40
2018-03-28T03:14:28.193Z,91.60
2018-03-28T03:16:55.661Z,91.40
2018-03-28T03:19:23.141Z,91.30
2018-03-28T03:21:50.616Z,91.20
2018-03-28T03:24:18.868Z,91.20
2018-03-28T03:26:46.329Z,91.20
2018-03-28T03:29:13.844Z,91.40
2018-03-28T03:31:41.309Z,91.10
2018-03-28T03:34:08.822Z,91.00
2018-03-28T03:36:36.293Z,90.80
2018-03-28T03:39:04.545Z,90.90
2018-03-28T03:41:32.008Z,90.80
2018-03-28T03:43:59.525Z,90.80
2018-03-28T03:46:26.984Z,90.80
2018-03-28T03:48:54.598Z,90.60
2018-03-28T03:51:22.850Z,91.00
2018-03-28T03:53:50.335Z,91.00
2018-03-28T03:56:18.599Z,91.10
2018-03-28T03:58:46.877Z,91.30
2018-03-28T04:01:15.127Z,91.30
2018-03-28T04:03:42.597Z,91.30
2018-03-28T04:06:10.090Z,91.30
2018-03-28T04:08:37.549Z,91.30
2018-03-28T04:11:05.075Z,91.40
2018-03-28T04:13:32.573Z,91.50
2018-03-28T04:16:00.133Z,91.60
2018-03-28T04:18:27.561Z,91.60
2018-03-28T04:20:55.810Z,91.70
2018-03-28T04:23:23.395Z,91.70
2018-03-28T04:25:50.887Z,91.80
2018-03-28T04:28:18.358Z,91.80
2018-03-28T04:30:45.849Z,91.80
2018-03-28T04:33:13.436Z,92.00
2018-03-28T04:35:40.916Z,92.00
2018-03-28T04:38:08.375Z,92.20
2018-03-28T04:40:35.860Z,92.40
2018-03-28T04:43:03.345Z,92.10
2018-03-28T04:45:30.817Z,92.30
2018-03-28T04:47:59.086Z,92.10
2018-03-28T04:50:27.337Z,92.50
2018-03-28T04:52:54.806Z,92.40
2018-03-28T04:55:22.309Z,92.40
2018-03-28T04:57:49.825Z,92.40
2018-03-28T05:00:17.314Z,92.70
2018-03-28T05:02:44.788Z,92.90
2018-03-28T05:05:12.277Z,92.80
2018-03-28T05:07:39.746Z,92.80
2018-03-28T05:10:07.238Z,92.70
2018-03-28T05:12:34.734Z,92.60
2018-03-28T05:15:02.272Z,92.50
2018-03-28T05:17:29.831Z,92.60
2018-03-28T05:19:57.324Z,92.20
2018-03-28T05:22:24.788Z,92.30
2018-03-28T05:24:52.270Z,92.40
2018-03-28T05:27:20.502Z,92.40
2018-03-28T05:29:48.006Z,92.40
2018-03-28T05:32:16.273Z,92.30
2018-03-28T05:34:44.538Z,92.10
2018-03-28T05:37:12.057Z,92.10
2018-03-28T05:39:39.562Z,92.10
2018-03-28T05:42:07.792Z,91.90
2018-03-28T05:44:35.357Z,91.80
2018-03-28T05:47:02.875Z,92.00
2018-03-28T05:49:30.320Z,91.90
2018-03-28T05:51:58.548Z,91.80
2018-03-28T05:54:26.043Z,91.70
2018-03-28T05:56:53.617Z,91.40
2018-03-28T05:59:21.920Z,90.70
2018-03-28T06:01:49.479Z,90.70
2018-03-28T06:04:17.026Z,90.40
2018-03-28T06:06:44.545Z,90.20
2018-03-28T06:09:12.014Z,89.90
2018-03-28T06:11:40.277Z,88.90
2018-03-28T06:14:07.845Z,88.70
2018-03-28T06:16:35.362Z,88.20
2018-03-28T06:19:02.917Z,88.00
2018-03-28T06:21:30.397Z,88.00
2018-03-28T06:23:57.880Z,88.30
2018-03-28T06:26:26.140Z,87.00
2018-03-28T06:28:53.623Z,87.00
2018-03-28T06:31:21.887Z,86.80
2018-03-28T06:33:49.337Z,86.80
2018-03-28T06:36:16.871Z,86.80
2018-03-28T06:38:44.400Z,86.10
2018-03-28T06:41:11.896Z,86.20
2018-03-28T06:43:39.477Z,85.80
2018-03-28T06:46:06.981Z,85.60
2018-03-28T06:48:34.469Z,84.80
2018-03-28T06:51:01.941Z,85.50
2018-03-28T06:53:30.220Z,84.80
2018-03-28T06:55:57.717Z,84.90
2018-03-28T07:01:00.097Z,84.50
2018-03-28T07:03:28.514Z,83.60
2018-03-28T07:05:56.761Z,83.10
2018-03-28T07:08:24.230Z,83.00
2018-03-28T07:10:51.823Z,83.00
2018-03-28T07:13:19.401Z,82.90
2018-03-28T07:15:46.881Z,82.50
2018-03-28T07:18:14.346Z,82.20
2018-03-28T07:20:41.863Z,82.20
2018-03-28T07:23:10.091Z,81.50
2018-03-28T07:25:37.570Z,81.50
2018-03-28T07:28:05.809Z,81.50
2018-03-28T07:30:33.291Z,81.50
2018-03-28T07:33:00.775Z,81.50
2018-03-28T07:35:28.253Z,81.20
2018-03-28T07:37:55.709Z,81.30
2018-03-28T07:40:23.196Z,81.00
2018-03-28T07:42:50.665Z,80.80
2018-03-28T07:45:18.228Z,80.50
2018-03-28T07:47:45.693Z,80.50
2018-03-28T07:50:13.213Z,80.80
2018-03-28T07:52:40.714Z,80.60
2018-03-28T07:55:09.021Z,80.90
2018-03-28T07:57:36.540Z,80.90
2018-03-28T08:00:04.102Z,80.50
2018-03-28T08:02:31.565Z,79.90
2018-03-28T08:04:59.821Z,80.10
2018-03-28T08:07:27.272Z,80.00
2018-03-28T08:09:54.765Z,79.70
2018-03-28T08:12:23.020Z,79.80
2018-03-28T08:14:50.479Z,79.70
2018-03-28T08:17:17.963Z,80.00
2018-03-28T08:19:45.432Z,79.70
2018-03-28T08:22:12.931Z,79.30
2018-03-28T08:24:40.398Z,78.70
2018-03-28T08:27:08.660Z,79.00
2018-03-28T08:29:36.138Z,79.00
2018-03-28T08:32:03.633Z,79.00
2018-03-28T08:34:31.100Z,79.40
2018-03-28T08:36:58.593Z,79.00
2018-03-28T08:39:26.058Z,79.00
2018-03-28T08:41:53.720Z,79.10
2018-03-28T08:44:21.198Z,78.70
2018-03-28T08:46:49.469Z,78.50
2018-03-28T08:49:16.937Z,78.50
2018-03-28T08:51:45.217Z,77.30
2018-03-28T08:54:13.451Z,77.10
2018-03-28T08:56:41.057Z,77.10
2018-03-28T08:59:08.524Z,76.70
2018-03-28T09:01:36.008Z,76.70
2018-03-28T09:04:03.468Z,77.30
2018-03-28T09:06:30.949Z,77.80
2018-03-28T09:08:58.520Z,76.60
2018-03-28T09:11:26.000Z,76.40
2018-03-28T09:13:54.251Z,76.30
2018-03-28T09:16:21.943Z,76.30
2018-03-28T09:18:49.410Z,76.20
2018-03-28T09:21:16.941Z,76.50
2018-03-28T09:23:44.421Z,76.00
2018-03-28T09:26:11.925Z,76.40
2018-03-28T09:28:39.392Z,76.60
2018-03-28T09:31:07.115Z,76.10
2018-03-28T09:33:34.586Z,75.80
2018-03-28T09:36:02.076Z,75.70
2018-03-28T09:38:29.556Z,76.30
2018-03-28T09:40:57.804Z,75.50
2018-03-28T09:43:25.270Z,75.50
2018-03-28T09:45:52.771Z,75.30
2018-03-28T09:48:20.241Z,75.10
2018-03-28T09:50:47.715Z,75.10
2018-03-28T09:53:15.201Z,75.00
2018-03-28T09:55:42.676Z,75.30
2018-03-28T09:58:10.137Z,74.60
2018-03-28T10:00:38.384Z,74.30
2018-03-28T10:03:23.609Z,74.20
2018-03-28T10:05:51.845Z,74.60
2018-03-28T10:08:20.091Z,73.50
2018-03-28T10:10:47.586Z,73.40
2018-03-28T10:13:15.825Z,73.70
2018-03-28T10:15:43.300Z,73.60
2018-03-28T10:18:10.765Z,72.40
2018-03-28T10:20:39.023Z,71.70
2018-03-28T10:23:06.489Z,71.60
2018-03-28T10:25:33.952Z,71.40
2018-03-28T10:28:01.442Z,70.40
2018-03-28T10:30:28.921Z,71.00
2018-03-28T10:32:56.426Z,70.30
2018-03-28T10:35:23.901Z,70.00
2018-03-28T10:37:52.179Z,69.30
2018-03-28T10:40:20.454Z,68.70
2018-03-28T10:42:47.989Z,68.70
2018-03-28T10:45:15.458Z,68.00
2018-03-28T10:47:43.737Z,68.20
2018-03-28T10:50:11.981Z,68.50
2018-03-28T10:52:40.066Z,68.40
2018-03-28T10:55:08.297Z,67.80
2018-03-28T10:57:35.778Z,67.90
2018-03-28T11:00:03.249Z,68.00
2018-03-28T11:02:30.729Z,68.00
2018-03-28T11:04:58.980Z,67.90
2018-03-28T11:07:26.468Z,67.80
2018-03-28T11:09:54.697Z,66.60
2018-03-28T11:12:22.293Z,66.60
2018-03-28T11:14:50.534Z,65.80
2018-03-28T11:17:18.221Z,65.70
2018-03-28T11:19:45.693Z,65.30
2018-03-28T11:22:13.945Z,65.10
2018-03-28T11:24:41.412Z,64.90
2018-03-28T11:27:09.024Z,64.60
2018-03-28T11:29:36.512Z,63.30
2018-03-28T11:32:03.997Z,63.10
2018-03-28T11:34:32.232Z,62.90
2018-03-28T11:36:59.732Z,62.30
2018-03-28T11:39:27.957Z,61.20
2018-03-28T11:41:55.471Z,61.10
2018-03-28T11:44:24.504Z,61.00
2018-03-28T11:46:52.013Z,61.00
2018-03-28T11:49:20.281Z,61.40
2018-03-28T11:51:47.753Z,61.30
2018-03-28T11:54:15.995Z,59.80
2018-03-28T11:56:43.492Z,59.80
2018-03-28T11:59:11.075Z,59.30
2018-03-28T12:01:38.567Z,59.50
2018-03-28T12:04:06.046Z,58.70
2018-03-28T12:06:33.729Z,58.20
2018-03-28T12:09:01.993Z,58.80
2018-03-28T12:11:30.264Z,58.70
2018-03-28T12:13:58.515Z,58.80
2018-03-28T12:16:26.037Z,58.80
2018-03-28T12:18:53.502Z,58.80
2018-03-28T12:21:20.990Z,58.80
2018-03-28T12:23:48.476Z,59.30
2018-03-28T12:26:16.794Z,57.60
2018-03-28T12:28:44.257Z,57.50
2018-03-28T12:31:12.388Z,57.60
2018-03-28T12:33:40.636Z,58.20
2018-03-28T12:36:08.200Z,58.20
2018-03-28T12:38:36.377Z,58.50
2018-03-28T12:41:03.872Z,58.10
2018-03-28T12:43:31.420Z,58.10
2018-03-28T12:45:59.649Z,59.20
2018-03-28T12:48:27.124Z,59.10
2018-03-28T12:50:54.751Z,59.70
2018-03-28T12:53:22.211Z,60.20
2018-03-28T12:55:49.681Z,61.50
2018-03-28T12:58:17.156Z,62.80
2018-03-28T13:00:46.129Z,63.10
2018-03-28T13:03:13.614Z,63.00
2018-03-28T13:05:41.276Z,62.60
2018-03-28T13:08:09.535Z,65.50
2018-03-28T13:10:36.994Z,64.50
2018-03-28T13:13:05.020Z,65.00
2018-03-28T13:15:32.490Z,65.60
2018-03-28T13:17:59.979Z,66.50
2018-03-28T13:20:27.477Z,67.70
2018-03-28T13:22:54.961Z,68.00
2018-03-28T13:25:22.513Z,68.20
2018-03-28T13:27:49.991Z,67.30
2018-03-28T13:30:17.448Z,68.70
2018-03-28T13:32:45.314Z,69.70
2018-03-28T13:35:12.806Z,70.90
2018-03-28T13:37:40.293Z,71.70
2018-03-28T13:40:07.764Z,72.20
2018-03-28T13:42:35.261Z,72.80
2018-03-28T13:45:02.842Z,73.50
2018-03-28T13:47:31.085Z,73.60
2018-03-28T13:49:58.611Z,73.50
2018-03-28T13:52:26.139Z,74.00
2018-03-28T13:54:54.379Z,75.00
2018-03-28T13:57:21.884Z,74.90
2018-03-28T13:59:50.112Z,76.90
2018-03-28T14:02:17.710Z,76.90
2018-03-28T14:04:46.018Z,78.50
2018-03-28T14:07:13.503Z,78.50
2018-03-28T14:09:41.012Z,79.20
2018-03-28T14:12:09.270Z,79.70
2018-03-28T14:14:37.813Z,79.60
2018-03-28T14:17:05.305Z,79.50
2018-03-28T14:19:33.554Z,80.70
2018-03-28T14:22:01.050Z,80.50
2018-03-28T14:24:29.284Z,80.10
2018-03-28T14:26:56.894Z,80.10
2018-03-28T14:31:58.250Z,80.50
2018-03-28T14:34:26.499Z,81.10
2018-03-28T14:36:53.980Z,81.10
2018-03-28T14:39:22.209Z,82.60
2018-03-28T14:41:49.711Z,82.50
2018-03-28T14:44:17.957Z,82.30
2018-03-28T14:46:45.435Z,82.20
2018-03-28T14:49:13.673Z,83.40
2018-03-28T14:51:41.177Z,83.40
2018-03-28T14:54:09.444Z,83.00
2018-03-28T14:56:36.911Z,83.00
2018-03-28T14:59:05.641Z,84.60
2018-03-28T15:01:33.276Z,84.50
2018-03-28T15:04:00.799Z,84.60
2018-03-28T15:06:28.380Z,84.70
2018-03-28T15:08:56.679Z,85.90
2018-03-28T15:11:24.325Z,86.70
2018-03-28T15:13:53.556Z,87.70
2018-03-28T15:16:21.042Z,87.70
2018-03-28T15:18:48.539Z,88.60
2018-03-28T15:21:17.013Z,88.20
2018-03-28T15:23:44.496Z,88.20
2018-03-28T15:26:12.026Z,89.00
2018-03-28T15:28:41.033Z,89.00
2018-03-28T15:31:08.507Z,89.00
2018-03-28T15:33:36.046Z,89.90
2018-03-28T15:36:05.251Z,89.80
2018-03-28T15:38:32.727Z,90.00
2018-03-28T15:41:00.210Z,90.00
2018-03-28T15:43:27.713Z,90.10
2018-03-28T15:45:55.969Z,90.00
2018-03-28T15:48:23.464Z,90.00
2018-03-28T15:50:50.977Z,90.50
2018-03-28T15:53:20.012Z,90.50
2018-03-28T15:55:47.481Z,90.50
2018-03-28T15:58:14.989Z,90.60
2018-03-28T16:00:42.484Z,90.40
2018-03-28T16:03:10.607Z,89.50
2018-03-28T16:05:38.092Z,89.10
2018-03-28T16:08:06.367Z,88.90
2018-03-28T16:10:34.605Z,88.60
2018-03-28T16:13:02.090Z,88.60
2018-03-28T16:15:29.594Z,88.80
2018-03-28T16:17:57.070Z,88.50
2018-03-28T16:20:25.470Z,89.30
2018-03-28T16:22:52.960Z,89.70
2018-03-28T16:25:21.261Z,90.10
2018-03-28T16:27:48.782Z,90.10
2018-03-28T16:30:17.018Z,90.30
2018-03-28T16:32:44.526Z,90.20
2018-03-28T16:35:12.810Z,90.00
2018-03-28T16:37:40.702Z,90.40
2018-03-28T16:40:08.206Z,90.40
2018-03-28T16:42:35.702Z,90.60
2018-03-28T16:45:03.387Z,90.40
2018-03-28T16:47:30.947Z,90.20
2018-03-28T16:49:58.421Z,90.00
2018-03-28T16:52:25.931Z,90.20
2018-03-28T16:54:53.506Z,90.20
2018-03-28T16:57:21.001Z,90.20
2018-03-28T16:59:48.476Z,90.50
2018-03-28T17:02:16.160Z,90.30
2018-03-28T17:04:44.442Z,90.50
2018-03-28T17:07:12.021Z,90.50
2018-03-28T17:09:39.537Z,90.40
2018-03-28T17:12:07.824Z,90.50
2018-03-28T17:14:36.099Z,90.50
2018-03-28T17:17:03.557Z,90.50
2018-03-28T17:19:31.859Z,90.50
2018-03-28T17:21:59.299Z,90.40
2018-03-28T17:24:27.551Z,90.50
2018-03-28T17:26:55.115Z,90.50
2018-03-28T17:29:22.630Z,90.50
2018-03-28T17:31:50.126Z,90.70
2018-03-28T17:34:17.625Z,90.70
2018-03-28T17:36:45.110Z,91.20
2018-03-28T17:39:12.651Z,90.70
2018-03-28T17:41:40.203Z,90.60
2018-03-28T17:44:07.643Z,90.80
2018-03-28T17:46:35.148Z,90.70
2018-03-28T17:49:02.604Z,90.90
2018-03-28T17:51:30.148Z,90.90
2018-03-28T17:53:57.663Z,90.80
2018-03-28T17:56:25.918Z,90.80
2018-03-28T17:58:54.199Z,90.70
2018-03-28T18:01:21.709Z,90.70
2018-03-28T18:03:49.205Z,90.50
2018-03-28T18:06:16.747Z,90.80
2018-03-28T18:08:44.249Z,90.90
2018-03-28T18:11:12.515Z,90.80
2018-03-28T18:13:40.770Z,90.90
2018-03-28T18:16:08.249Z,90.90
2018-03-28T18:18:36.556Z,91.40
2018-03-28T18:21:04.053Z,91.30
2018-03-28T18:23:31.566Z,91.40
2018-03-28T18:25:59.059Z,91.30
2018-03-28T18:28:26.544Z,91.40
2018-03-28T18:30:54.866Z,91.30
2018-03-28T18:33:22.341Z,91.30
2018-03-28T18:35:49.875Z,91.80
2018-03-28T18:38:17.366Z,91.60
2018-03-28T18:40:44.848Z,91.70
2018-03-28T18:43:13.397Z,91.90
2018-03-28T18:45:40.894Z,91.90
2018-03-28T18:48:08.359Z,91.20
2018-03-28T18:50:36.826Z,91.30
2018-03-28T18:53:05.100Z,91.20
2018-03-28T18:55:34.174Z,91.10
2018-03-28T18:58:01.638Z,91.10
2018-03-28T19:00:29.228Z,91.20
2018-03-28T19:02:57.504Z,91.20
2018-03-28T19:05:25.784Z,91.20
2018-03-28T19:07:54.070Z,91.20
2018-03-28T19:10:22.332Z,91.20
2018-03-28T19:12:50.591Z,91.20
2018-03-28T19:15:18.089Z,91.20
2018-03-28T19:17:45.583Z,91.20
2018-03-28T19:20:13.065Z,91.10
2018-03-28T19:22:40.678Z,91.20
2018-03-28T19:25:08.164Z,91.20
2018-03-28T19:27:35.745Z,91.20
2018-03-28T19:30:03.191Z,91.70
2018-03-28T19:32:30.819Z,91.60
2018-03-28T19:34:58.329Z,91.60
2018-03-28T19:37:26.618Z,91.60
2018-03-28T19:39:54.847Z,91.80
2018-03-28T19:42:22.339Z,91.70
2018-03-28T19:44:49.929Z,91.60
2018-03-28T19:47:17.853Z,91.60
2018-03-28T19:49:45.323Z,91.20
2018-03-28T19:52:13.604Z,90.80
2018-03-28T19:54:41.842Z,89.90
2018-03-28T19:57:09.330Z,89.90
2018-03-28T19:59:36.806Z,89.60
2018-03-28T20:02:05.141Z,89.60
2018-03-28T20:04:32.665Z,89.50
2018-03-28T20:07:00.141Z,89.90
2018-03-28T20:09:27.634Z,90.00
2018-03-28T20:11:55.212Z,90.00
2018-03-28T20:14:23.476Z,90.10
2018-03-28T20:16:50.952Z,89.60
2018-03-28T20:19:19.219Z,87.50
2018-03-28T20:21:47.465Z,84.70
2018-03-28T20:24:14.963Z,84.70
2018-03-28T20:26:42.445Z,84.00
2018-03-28T20:29:09.935Z,83.20
2018-03-28T20:31:37.396Z,81.10
2018-03-28T20:34:04.904Z,78.60
2018-03-28T20:36:32.367Z,78.40
2018-03-28T20:38:59.852Z,75.90
2018-03-28T20:41:27.310Z,74.70
2018-03-28T20:43:54.780Z,74.90
2018-03-28T20:46:22.281Z,75.50
2018-03-28T20:48:49.790Z,75.20
2018-03-28T20:51:17.251Z,75.80
2018-03-28T20:53:44.703Z,76.10
2018-03-28T20:56:12.469Z,75.90
2018-03-28T20:58:40.075Z,75.20
2018-03-28T21:01:07.856Z,74.60
2018-03-28T21:03:35.332Z,71.80
2018-03-28T21:06:02.962Z,71.20
2018-03-28T21:08:30.496Z,71.20
2018-03-28T21:10:58.410Z,71.00
2018-03-28T21:13:25.927Z,71.60
2018-03-28T21:15:53.409Z,72.00
2018-03-28T21:18:20.950Z,72.50
2018-03-28T21:20:48.475Z,72.80
2018-03-28T21:23:16.136Z,73.10
2018-03-28T21:25:43.640Z,74.10
2018-03-28T21:28:11.096Z,72.00
2018-03-28T21:30:38.579Z,70.60
2018-03-28T21:33:06.815Z,69.20
2018-03-28T21:35:34.315Z,69.00
2018-03-28T21:38:01.780Z,69.90
2018-03-28T21:40:29.709Z,70.50
2018-03-28T21:42:57.205Z,70.80
2018-03-28T21:45:24.808Z,70.40
2018-03-28T21:47:52.445Z,70.10
2018-03-28T21:50:20.009Z,70.40
2018-03-28T21:52:47.493Z,70.80
2018-03-28T21:55:14.968Z,72.30
2018-03-28T21:57:42.554Z,72.60
2018-03-28T22:00:10.594Z,73.00
2018-03-28T22:02:38.172Z,72.80
2018-03-28T22:05:06.414Z,72.90
2018-03-28T22:07:34.754Z,72.10
2018-03-28T22:10:02.268Z,72.50
2018-03-28T22:12:29.789Z,73.20
2018-03-28T22:14:57.250Z,72.10
2018-03-28T22:17:24.739Z,72.00
2018-03-28T22:19:52.995Z,69.00
2018-03-28T22:22:20.472Z,68.90
2018-03-28T22:24:48.693Z,68.70
2018-03-28T22:27:16.172Z,68.50
2018-03-28T22:29:43.632Z,68.40
2018-03-28T22:32:11.125Z,67.90
2018-03-28T22:34:39.389Z,66.40
2018-03-28T22:37:06.999Z,66.30
2018-03-28T22:39:34.555Z,66.00
2018-03-28T22:42:02.017Z,65.70
2018-03-28T22:44:29.512Z,65.50
2018-03-28T22:46:56.971Z,65.90
2018-03-28T22:49:24.452Z,65.80
2018-03-28T22:51:52.708Z,66.20
2018-03-28T22:54:20.280Z,66.00
2018-03-28T22:56:48.529Z,65.40
2018-03-28T22:59:16.117Z,65.40
2018-03-28T23:01:44.357Z,65.50
2018-03-28T23:04:11.828Z,65.50
2018-03-28T23:06:39.296Z,65.80
2018-03-28T23:09:06.816Z,65.50
2018-03-28T23:11:34.278Z,65.90
2018-03-28T23:14:01.766Z,65.30
2018-03-28T23:16:30.744Z,65.50
2018-03-28T23:18:58.344Z,65.50
2018-03-28T23:21:26.571Z,65.60
2018-03-28T23:23:54.048Z,65.60
2018-03-28T23:26:21.507Z,66.10
2018-03-28T23:28:48.996Z,65.70
2018-03-28T23:31:17.257Z,67.10
2018-03-28T23:33:45.504Z,67.50
2018-03-28T23:36:12.997Z,67.50
2018-03-28T23:38:41.233Z,66.60
2018-03-28T23:41:08.709Z,66.60
2018-03-28T23:43:36.180Z,66.80
2018-03-28T23:46:04.452Z,67.30
2018-03-28T23:48:32.687Z,67.80
2018-03-28T23:51:00.174Z,67.60
2018-03-28T23:53:27.766Z,67.50
2018-03-28T23:55:55.308Z,67.50
2018-03-28T23:58:23.585Z,68.00
